Dunmore, WV (24934)

10:10 AM EDT on September 01, 2015 (GMT -0400)
Green Bank Observatory, near 140ft telescope | | Change Station
CLOSE
Current Station
Personal Weather Station
Location: Green Bank, WV
Elevation: 2688 ft
Nearby Weather Stations

Elev 2688 ft 38.44 °N, 79.83 °W | Updated 12 seconds ago

Partly Cloudy
Partly Cloudy
72.4 °F
Feels Like 74 °F
N
2.1
Wind Variable Wind from SSE
Gusts 3.4 mph

Today
High -- | Low -- °F
--% Chance of Precip.
Yesterday
High -- | Low -- °F
Precip. -- in
6:48 AM 7:49 PM
Waning Gibbous, 88% visible
Pressure 30.28 in
Visibility 10.0 miles
Clouds Clear
Heat Index 74 °F
Dew Point 64 °F
Humidity 75%
Rainfall 0.00 in
Snow Depth Not available.
UV 4 out of 12
Pollen 9.70 out of 12
Air Quality Not available.
Flu Activity Not available.
METAR KHSP 011350Z AUTO 35005KT 10SM CLR 22/17 A3028 RMK AO2 T02180173
Pressure 30.28 in
Visibility 10.0 miles
Clouds Clear
Heat Index 74 °F
Dew Point 64 °F
Humidity 75%
Rainfall 0.00 in
Snow Depth Not available.
UV 4 out of 12
Pollen 9.70 out of 12
Air Quality Not available.
Flu Activity Not available.
METAR KHSP 011350Z AUTO 35005KT 10SM CLR 22/17 A3028 RMK AO2 T02180173

10-Day Weather Forecast

×

Almanac

Astronomy

Sep. 01, 2015 Rise Set
Actual Time
Civil Twilight
Nautical Twilight
Astronomical Twilight
Moon
Length of Visible Light
Length of Day
Tomorrow will be .
, % of the Moon is Illuminated

Today's Extremes

State Highs State Lows

Community

WunderPhotos

Upload Photos

1,851,512 photos uploaded!

WunderBlogs® & News

Nearby

Air Quality

  Air Quality AQ Index Pollutant
Not available.

Snow Depth

Station Depth Elevation

Earthquake Activity

City Distance Mag. Time & Date
Minimum magnitude displayed is 2.5.

Coastal Water Temperatures

Place Temperature

Stations

Nearby Weather Stations

Station Location Temp. Windchill Dew Point Humidity Wind Precip. Elev Updated Type